Coral Leaf — PHNI — position and weather

sailwx.info

Track history (hours):
 
Tides and Currents Weather Stations Pressure Air Temp Water Temp Dewpoint Dewpoint Depression Visibility Wind Speed Wind Dir Waves Ship Positions

Coral Leaf

Last reported at 2015-Jul-06 16:23 UTC. Time now 2015-Jul-07 02:26 UTC.
Position N 59°06' E 009°36'.

Length 108 m; draft 5 m.

Type: Ship (hazmat cat D). MMSI: 244036000.

Date/timePositionNaut miles runAvg speedWind from/ knotsBaromVisibWave heightAir tempDewpointWater temp
2015-Jul-06 16:23N 59°06' E 009°36'0 0.0
2015-Jul-06 12:27N 59°06' E 009°36'5 5.0
2015-Jul-06 11:32N 59°03' E 009°43'9 8.9
2015-Jul-06 10:34N 58°54' E 009°47'31514.7
2015-Jul-05 13:03N 54°17' E 005°16'714.4
2015-Jul-05 12:33N 54°10' E 005°11'1514.7
2015-Jul-05 11:33N 53°56' E 005°02'1515.1
2015-Jul-05 10:32N 53°42' E 004°54'1515.3
2015-Jul-05 09:33N 53°28' E 004°44'1615.8
2015-Jul-05 08:33N 53°14' E 004°34'1615.8
2015-Jul-05 07:33N 52°60' E 004°21'1716.7
2015-Jul-05 06:33N 52°45' E 004°07'1616.5
2015-Jul-05 05:33N 52°30' E 003°55'1616.1
2015-Jul-05 04:34N 52°14' E 003°53'1514.5
2015-Jul-05 03:33N 52°01' E 004°00'1212.1
2015-Jul-05 02:33N 51°54' E 004°17'9 8.7
2015-Jul-05 01:34N 51°50' E 004°30'8 8.0
2015-Jul-05 00:34N 51°44' E 004°38'4 3.4
2015-Jul-04 23:31N 51°42' E 004°34'0 0.0
2015-Jul-04 22:28N 51°42' E 004°34'0 0.0
2015-Jul-04 21:31N 51°42' E 004°34'0 0.0
2015-Jul-04 20:34N 51°42' E 004°34'0 0.0
2015-Jul-04 19:33N 51°42' E 004°34'0 0.0
2015-Jul-04 18:33N 51°42' E 004°34'0 0.0
2015-Jul-04 17:33N 51°42' E 004°34'0 0.0
2015-Jul-04 16:33N 51°42' E 004°34'0 0.0
2015-Jul-04 15:33N 51°42' E 004°34'0 0.0
2015-Jul-04 14:33N 51°42' E 004°34'0 0.0
2015-Jul-04 13:33N 51°42' E 004°34'0 0.0
2015-Jul-04 12:33N 51°42' E 004°34'0 0.0
2015-Jul-04 11:33N 51°42' E 004°34'0 0.0
2015-Jul-04 10:33N 51°42' E 004°34'0 0.0
2015-Jul-04 09:33N 51°42' E 004°34'0 0.0
2015-Jul-04 08:26N 51°42' E 004°34'0 0.0
2015-Jul-04 07:32N 51°42' E 004°34'0 0.0
2015-Jul-04 06:29N 51°42' E 004°34'0 0.0
2015-Jul-04 05:32N 51°42' E 004°34'0 0.0
2015-Jul-04 04:32N 51°42' E 004°34'0 0.0
2015-Jul-04 03:32N 51°42' E 004°34'0 0.0
2015-Jul-04 02:32N 51°42' E 004°34'0 0.0
2015-Jul-04 01:32N 51°42' E 004°34'0 0.0
2015-Jul-04 00:32N 51°42' E 004°34'0 0.0
2015-Jul-03 23:29N 51°42' E 004°34'0 0.0
2015-Jul-03 22:32N 51°42' E 004°34'0 0.0
2015-Jul-03 21:31N 51°42' E 004°34'0 0.0
2015-Jul-03 20:31N 51°42' E 004°34'0 0.0
2015-Jul-03 19:31N 51°42' E 004°34'0 0.0
2015-Jul-03 18:31N 51°42' E 004°34'0 0.4
2015-Jul-03 17:32N 51°41' E 004°34'0 0.0
2015-Jul-03 16:29N 51°41' E 004°34'0 0.0
2015-Jul-03 15:32N 51°41' E 004°34'0 0.0
2015-Jul-03 14:32N 51°41' E 004°34'0 0.0
2015-Jul-03 13:28N 51°41' E 004°34'0 0.0
2015-Jul-03 12:22N 51°41' E 004°34'0 0.0
2015-Jul-03 11:28N 51°41' E 004°34'0 0.0
2015-Jul-03 10:16N 51°41' E 004°34'0 0.0
2015-Jul-03 09:28N 51°41' E 004°34'0 0.0
2015-Jul-03 08:31N 51°41' E 004°34'0 0.0
2015-Jul-03 07:10N 51°41' E 004°34'0 0.0
2015-Jul-03 06:28N 51°41' E 004°34'0 0.0
2015-Jul-03 05:28N 51°41' E 004°34'0 0.0
2015-Jul-03 03:30N 51°41' E 004°34'0 0.0
2015-Jul-03 02:33N 51°41' E 004°34'0 0.0
2015-Jul-03 01:33N 51°41' E 004°34'3 2.6
2015-Jul-03 00:33N 51°43' E 004°37'7 7.5
2015-Jul-02 23:34N 51°50' E 004°32'8 8.0
2015-Jul-02 22:34N 51°53' E 004°20'9 9.1
2015-Jul-02 21:34N 51°58' E 004°08'1212.4
2015-Jul-02 20:33N 52°01' E 003°48'8 7.8
2015-Jul-02 19:33N 52°08' E 003°46'1312.7
2015-Jul-02 18:33N 52°21' E 003°48'1312.8
2015-Jul-02 17:33N 52°33' E 003°52'1212.3
2015-Jul-02 16:33N 52°45' E 003°56'1211.8
2015-Jul-02 15:33N 52°57' E 004°01'1212.0
2015-Jul-02 14:33N 53°06' E 004°14'1313.0
2015-Jul-02 13:33N 53°16' E 004°27'1513.9
2015-Jul-02 12:28N 53°30' E 004°36'1413.9
2015-Jul-02 11:26N 53°44' E 004°44'1213.4
2015-Jul-02 10:33N 53°55' E 004°51'1313.0
2015-Jul-02 09:31N 54°08' E 004°59'1212.4
2015-Jul-02 08:33N 54°19' E 005°07'25113.1
2015-Jul-01 13:22N 57°59' E 008°42'1113.8
2015-Jul-01 12:33N 58°08' E 008°57'1413.9
2015-Jul-01 11:33N 58°18' E 009°14'1413.6
2015-Jul-01 10:33N 58°28' E 009°31'1313.2
2015-Jul-01 09:33N 58°41' E 009°40'1414.1
2015-Jul-01 08:33N 58°54' E 009°46'13 1.5
2015-Jul-01 00:18N 59°06' E 009°36'0 0.0
2015-Jun-30 22:32N 59°06' E 009°36'0 0.0
2015-Jun-30 21:33N 59°06' E 009°36'0 0.0
2015-Jun-30 15:33N 59°06' E 009°36'1 0.0
2015-Jun-29 17:27N 59°06' E 009°37'0 0.0
2015-Jun-29 11:33N 59°06' E 009°37'0 0.0
2015-Jun-29 09:24N 59°06' E 009°37'1 0.6
2015-Jun-29 08:33N 59°06' E 009°38'7 5.9
2015-Jun-29 07:26N 59°01' E 009°46'910.7
2015-Jun-29 06:33N 58°52' E 009°52'9 9.2
2015-Jun-29 05:33N 58°44' E 009°59'1 0.7
2015-Jun-29 04:13N 58°43' E 010°00'0 0.4
2015-Jun-29 03:23N 58°43' E 009°60'1 0.5
2015-Jun-29 02:22N 58°43' E 009°59'5514.4
2015-Jun-28 22:32N 57°53' E 010°43'1212.7
2015-Jun-28 21:34N 57°41' E 010°39'0 0.2
2015-Jun-28 19:29N 57°41' E 010°38'0 0.0
2015-Jun-28 18:26N 57°41' E 010°38'0 0.1
2015-Jun-28 17:33N 57°41' E 010°38'7 6.8
2015-Jun-28 16:33N 57°47' E 010°34'25411.9
2015-Jun-27 19:13N 53°49' E 007°59'812.5
2015-Jun-27 18:33N 53°41' E 008°05'3 1.9
2015-Jun-27 17:06N 53°39' E 008°06'0 0.0
2015-Jun-27 16:32N 53°39' E 008°06'0 0.0
2015-Jun-27 15:33N 53°39' E 008°06'0 0.0
2015-Jun-27 14:32N 53°39' E 008°06'0 0.0
2015-Jun-27 12:19N 53°39' E 008°06'0 0.0
2015-Jun-27 11:20N 53°39' E 008°06'0 0.0
2015-Jun-27 10:33N 53°39' E 008°06'0 0.0
2015-Jun-27 09:33N 53°39' E 008°06'0 0.0
2015-Jun-27 08:32N 53°39' E 008°06'0 0.0
2015-Jun-27 07:33N 53°39' E 008°06'0 0.0
2015-Jun-27 06:33N 53°39' E 008°06'0 0.0
2015-Jun-27 05:33N 53°39' E 008°06'0 0.0
2015-Jun-27 04:31N 53°39' E 008°06'0 0.0
2015-Jun-27 03:33N 53°39' E 008°06'0 0.0
2015-Jun-27 02:32N 53°39' E 008°06'0 0.0
2015-Jun-27 01:33N 53°39' E 008°06'0 0.0
2015-Jun-27 00:33N 53°39' E 008°06'0 0.0
2015-Jun-26 23:33N 53°39' E 008°06'0 0.0
2015-Jun-26 22:33N 53°39' E 008°06'2 2.2
2015-Jun-26 21:33N 53°41' E 008°05'1010.5
2015-Jun-26 20:33N 53°49' E 007°55'1312.4
2015-Jun-26 19:31N 53°57' E 007°38'1414.2
2015-Jun-26 18:33N 54°09' E 007°27'  
Track history (hours):
 
Tides and Currents Weather Stations Pressure Air Temp Water Temp Dewpoint Dewpoint Depression Visibility Wind Speed Wind Dir Waves Ship Positions

Coral Leaf

Last reported at 2015-Jul-06 16:23 UTC. Time now 2015-Jul-07 02:26 UTC.
Position N 59°06' E 009°36'.

Length 108 m; draft 5 m.

Type: Ship (hazmat cat D). MMSI: 244036000.

Date/timePositionNaut miles runAvg speedWind from/ knotsBaromVisibWave heightAir tempDewpointWater temp
2015-Jul-06 16:23N 59°06' E 009°36'0 0.0
2015-Jul-06 12:27N 59°06' E 009°36'5 5.0
2015-Jul-06 11:32N 59°03' E 009°43'9 8.9
2015-Jul-06 10:34N 58°54' E 009°47'31514.7
2015-Jul-05 13:03N 54°17' E 005°16'714.4
2015-Jul-05 12:33N 54°10' E 005°11'1514.7
2015-Jul-05 11:33N 53°56' E 005°02'1515.1
2015-Jul-05 10:32N 53°42' E 004°54'1515.3
2015-Jul-05 09:33N 53°28' E 004°44'1615.8
2015-Jul-05 08:33N 53°14' E 004°34'1615.8
2015-Jul-05 07:33N 52°60' E 004°21'1716.7
2015-Jul-05 06:33N 52°45' E 004°07'1616.5
2015-Jul-05 05:33N 52°30' E 003°55'1616.1
2015-Jul-05 04:34N 52°14' E 003°53'1514.5
2015-Jul-05 03:33N 52°01' E 004°00'1212.1
2015-Jul-05 02:33N 51°54' E 004°17'9 8.7
2015-Jul-05 01:34N 51°50' E 004°30'8 8.0
2015-Jul-05 00:34N 51°44' E 004°38'4 3.4
2015-Jul-04 23:31N 51°42' E 004°34'0 0.0
2015-Jul-04 22:28N 51°42' E 004°34'0 0.0
2015-Jul-04 21:31N 51°42' E 004°34'0 0.0
2015-Jul-04 20:34N 51°42' E 004°34'0 0.0
2015-Jul-04 19:33N 51°42' E 004°34'0 0.0
2015-Jul-04 18:33N 51°42' E 004°34'0 0.0
2015-Jul-04 17:33N 51°42' E 004°34'0 0.0
2015-Jul-04 16:33N 51°42' E 004°34'0 0.0
2015-Jul-04 15:33N 51°42' E 004°34'0 0.0
2015-Jul-04 14:33N 51°42' E 004°34'0 0.0
2015-Jul-04 13:33N 51°42' E 004°34'0 0.0
2015-Jul-04 12:33N 51°42' E 004°34'0 0.0
2015-Jul-04 11:33N 51°42' E 004°34'0 0.0
2015-Jul-04 10:33N 51°42' E 004°34'0 0.0
2015-Jul-04 09:33N 51°42' E 004°34'0 0.0
2015-Jul-04 08:26N 51°42' E 004°34'0 0.0
2015-Jul-04 07:32N 51°42' E 004°34'0 0.0
2015-Jul-04 06:29N 51°42' E 004°34'0 0.0
2015-Jul-04 05:32N 51°42' E 004°34'0 0.0
2015-Jul-04 04:32N 51°42' E 004°34'0 0.0
2015-Jul-04 03:32N 51°42' E 004°34'0 0.0
2015-Jul-04 02:32N 51°42' E 004°34'0 0.0
2015-Jul-04 01:32N 51°42' E 004°34'0 0.0
2015-Jul-04 00:32N 51°42' E 004°34'0 0.0
2015-Jul-03 23:29N 51°42' E 004°34'0 0.0
2015-Jul-03 22:32N 51°42' E 004°34'0 0.0
2015-Jul-03 21:31N 51°42' E 004°34'0 0.0
2015-Jul-03 20:31N 51°42' E 004°34'0 0.0
2015-Jul-03 19:31N 51°42' E 004°34'0 0.0
2015-Jul-03 18:31N 51°42' E 004°34'0 0.4
2015-Jul-03 17:32N 51°41' E 004°34'0 0.0
2015-Jul-03 16:29N 51°41' E 004°34'0 0.0
2015-Jul-03 15:32N 51°41' E 004°34'0 0.0
2015-Jul-03 14:32N 51°41' E 004°34'0 0.0
2015-Jul-03 13:28N 51°41' E 004°34'0 0.0
2015-Jul-03 12:22N 51°41' E 004°34'0 0.0
2015-Jul-03 11:28N 51°41' E 004°34'0 0.0
2015-Jul-03 10:16N 51°41' E 004°34'0 0.0
2015-Jul-03 09:28N 51°41' E 004°34'0 0.0
2015-Jul-03 08:31N 51°41' E 004°34'0 0.0
2015-Jul-03 07:10N 51°41' E 004°34'0 0.0
2015-Jul-03 06:28N 51°41' E 004°34'0 0.0
2015-Jul-03 05:28N 51°41' E 004°34'0 0.0
2015-Jul-03 03:30N 51°41' E 004°34'0 0.0
2015-Jul-03 02:33N 51°41' E 004°34'0 0.0
2015-Jul-03 01:33N 51°41' E 004°34'3 2.6
2015-Jul-03 00:33N 51°43' E 004°37'7 7.5
2015-Jul-02 23:34N 51°50' E 004°32'8 8.0
2015-Jul-02 22:34N 51°53' E 004°20'9 9.1
2015-Jul-02 21:34N 51°58' E 004°08'1212.4
2015-Jul-02 20:33N 52°01' E 003°48'8 7.8
2015-Jul-02 19:33N 52°08' E 003°46'1312.7
2015-Jul-02 18:33N 52°21' E 003°48'1312.8
2015-Jul-02 17:33N 52°33' E 003°52'1212.3
2015-Jul-02 16:33N 52°45' E 003°56'1211.8
2015-Jul-02 15:33N 52°57' E 004°01'1212.0
2015-Jul-02 14:33N 53°06' E 004°14'1313.0
2015-Jul-02 13:33N 53°16' E 004°27'1513.9
2015-Jul-02 12:28N 53°30' E 004°36'1413.9
2015-Jul-02 11:26N 53°44' E 004°44'1213.4
2015-Jul-02 10:33N 53°55' E 004°51'1313.0
2015-Jul-02 09:31N 54°08' E 004°59'1212.4
2015-Jul-02 08:33N 54°19' E 005°07'25113.1
2015-Jul-01 13:22N 57°59' E 008°42'1113.8
2015-Jul-01 12:33N 58°08' E 008°57'1413.9
2015-Jul-01 11:33N 58°18' E 009°14'1413.6
2015-Jul-01 10:33N 58°28' E 009°31'1313.2
2015-Jul-01 09:33N 58°41' E 009°40'1414.1
2015-Jul-01 08:33N 58°54' E 009°46'13 1.5
2015-Jul-01 00:18N 59°06' E 009°36'0 0.0
2015-Jun-30 22:32N 59°06' E 009°36'0 0.0
2015-Jun-30 21:33N 59°06' E 009°36'0 0.0
2015-Jun-30 15:33N 59°06' E 009°36'1 0.0
2015-Jun-29 17:27N 59°06' E 009°37'0 0.0
2015-Jun-29 11:33N 59°06' E 009°37'0 0.0
2015-Jun-29 09:24N 59°06' E 009°37'1 0.6
2015-Jun-29 08:33N 59°06' E 009°38'7 5.9
2015-Jun-29 07:26N 59°01' E 009°46'910.7
2015-Jun-29 06:33N 58°52' E 009°52'9 9.2
2015-Jun-29 05:33N 58°44' E 009°59'1 0.7
2015-Jun-29 04:13N 58°43' E 010°00'0 0.4
2015-Jun-29 03:23N 58°43' E 009°60'1 0.5
2015-Jun-29 02:22N 58°43' E 009°59'5514.4
2015-Jun-28 22:32N 57°53' E 010°43'1212.7
2015-Jun-28 21:34N 57°41' E 010°39'0 0.2
2015-Jun-28 19:29N 57°41' E 010°38'0 0.0
2015-Jun-28 18:26N 57°41' E 010°38'0 0.1
2015-Jun-28 17:33N 57°41' E 010°38'7 6.8
2015-Jun-28 16:33N 57°47' E 010°34'25411.9
2015-Jun-27 19:13N 53°49' E 007°59'812.5
2015-Jun-27 18:33N 53°41' E 008°05'3 1.9
2015-Jun-27 17:06N 53°39' E 008°06'0 0.0
2015-Jun-27 16:32N 53°39' E 008°06'0 0.0
2015-Jun-27 15:33N 53°39' E 008°06'0 0.0
2015-Jun-27 14:32N 53°39' E 008°06'0 0.0
2015-Jun-27 12:19N 53°39' E 008°06'0 0.0
2015-Jun-27 11:20N 53°39' E 008°06'0 0.0
2015-Jun-27 10:33N 53°39' E 008°06'0 0.0
2015-Jun-27 09:33N 53°39' E 008°06'0 0.0
2015-Jun-27 08:32N 53°39' E 008°06'0 0.0
2015-Jun-27 07:33N 53°39' E 008°06'0 0.0
2015-Jun-27 06:33N 53°39' E 008°06'0 0.0
2015-Jun-27 05:33N 53°39' E 008°06'0 0.0
2015-Jun-27 04:31N 53°39' E 008°06'0 0.0
2015-Jun-27 03:33N 53°39' E 008°06'0 0.0
2015-Jun-27 02:32N 53°39' E 008°06'0 0.0
2015-Jun-27 01:33N 53°39' E 008°06'0 0.0
2015-Jun-27 00:33N 53°39' E 008°06'0 0.0
2015-Jun-26 23:33N 53°39' E 008°06'0 0.0
2015-Jun-26 22:33N 53°39' E 008°06'2 2.2
2015-Jun-26 21:33N 53°41' E 008°05'1010.5
2015-Jun-26 20:33N 53°49' E 007°55'1312.4
2015-Jun-26 19:31N 53°57' E 007°38'1414.2
2015-Jun-26 18:33N 54°09' E 007°27'  

Dump ship's entire track history